createdAt,value
2023-04-12T00:00:19.795Z,100605.84
2023-04-12T00:05:46.925Z,100603.22
2023-04-12T00:08:15.918Z,100605.16
2023-04-12T00:10:44.066Z,100604.88
2023-04-12T00:13:12.141Z,100611.75
2023-04-12T00:15:40.174Z,100604.22
2023-04-12T00:18:08.427Z,100609.78
2023-04-12T00:20:36.905Z,100600.66
2023-04-12T00:23:06.748Z,100596.19
2023-04-12T00:25:36.952Z,100584.34
2023-04-12T00:28:05.114Z,100597.69
2023-04-12T00:30:33.391Z,100587.66
2023-04-12T00:33:01.350Z,100578.31
2023-04-12T00:35:29.388Z,100580.75
2023-04-12T00:37:57.342Z,100569.56
2023-04-12T00:40:26.982Z,100567.16
2023-04-12T00:42:54.915Z,100574.53
2023-04-12T00:45:23.117Z,100564.72
2023-04-12T00:47:51.059Z,100572.13
2023-04-12T00:50:19.065Z,100574.31
2023-04-12T00:52:47.497Z,100560.63
2023-04-12T00:55:16.284Z,100558.94
2023-04-12T00:57:45.540Z,100546.81
2023-04-12T01:00:14.099Z,100549.66
2023-04-12T01:02:47.490Z,100544.59
2023-04-12T01:05:22.159Z,100544.97
2023-04-12T01:08:06.192Z,100532.03
2023-04-12T01:10:42.630Z,100532.91
2023-04-12T01:13:21.311Z,100529.59
2023-04-12T01:16:02.466Z,100536.97
2023-04-12T01:18:34.739Z,100535.84
2023-04-12T01:21:08.047Z,100537.09
2023-04-12T01:23:49.100Z,100529.34
2023-04-12T01:26:33.243Z,100533.63
2023-04-12T01:29:09.868Z,100534.41
2023-04-12T01:31:41.240Z,100541.69
2023-04-12T01:34:11.987Z,100540.16
2023-04-12T01:36:41.535Z,100539.88
2023-04-12T01:39:09.734Z,100540.56
2023-04-12T01:41:42.163Z,100542.31
2023-04-12T01:44:14.378Z,100542.31
2023-04-12T01:46:43.560Z,100542.94
2023-04-12T01:49:12.933Z,100541.53
2023-04-12T01:51:51.331Z,100547.78
2023-04-12T01:54:22.927Z,100559.84
2023-04-12T01:56:55.675Z,100561.31
2023-04-12T01:59:27.713Z,100577.75
2023-04-12T02:01:56.033Z,100587.25
2023-04-12T02:04:25.460Z,100598.19
2023-04-12T02:06:56.663Z,100609.09
2023-04-12T02:09:25.300Z,100623.97
2023-04-12T02:11:53.037Z,100645.38
2023-04-12T02:14:21.944Z,100665.22
2023-04-12T02:16:54.807Z,100671.69
2023-04-12T02:19:23.111Z,100675.41
2023-04-12T02:21:52.401Z,100667.00
2023-04-12T02:24:20.598Z,100650.19
2023-04-12T02:26:49.739Z,100631.59
2023-04-12T02:29:17.681Z,100601.38
2023-04-12T02:31:48.557Z,100577.97
2023-04-12T02:34:19.508Z,100569.03
2023-04-12T02:36:57.914Z,100586.59
2023-04-12T02:39:26.232Z,100577.88
2023-04-12T02:41:55.065Z,100581.34
2023-04-12T02:44:22.778Z,100572.06
2023-04-12T02:47:07.441Z,100562.72
2023-04-12T02:49:38.183Z,100578.53
2023-04-12T02:52:06.939Z,100579.19
2023-04-12T02:54:42.608Z,100575.63
2023-04-12T02:57:16.608Z,100568.06
2023-04-12T02:59:47.403Z,100567.22
2023-04-12T03:02:20.311Z,100542.88
2023-04-12T03:04:51.131Z,100542.38
2023-04-12T03:07:23.868Z,100522.59
2023-04-12T03:09:53.954Z,100511.41
2023-04-12T03:12:26.896Z,100502.72
2023-04-12T03:15:14.658Z,100507.91
2023-04-12T03:17:46.707Z,100504.28
2023-04-12T03:20:18.024Z,100489.09
2023-04-12T03:22:53.050Z,100475.63
2023-04-12T03:25:21.197Z,100470.88
2023-04-12T03:27:55.308Z,100464.88
2023-04-12T03:30:29.284Z,100461.91
2023-04-12T03:32:58.506Z,100464.88
2023-04-12T03:35:28.951Z,100454.97
2023-04-12T03:37:57.675Z,100448.22
2023-04-12T03:40:25.777Z,100445.97
2023-04-12T03:43:01.315Z,100418.94
2023-04-12T03:45:30.035Z,100408.44
2023-04-12T03:48:01.385Z,100403.06
2023-04-12T03:50:44.533Z,100396.56
2023-04-12T03:53:18.949Z,100386.59
2023-04-12T03:55:48.176Z,100364.56
2023-04-12T03:58:16.473Z,100349.22
2023-04-12T04:00:46.638Z,100339.50
2023-04-12T04:03:15.775Z,100326.69
2023-04-12T04:06:00.797Z,100321.28
2023-04-12T04:08:32.541Z,100296.16
2023-04-12T04:11:00.610Z,100296.47
2023-04-12T04:13:34.882Z,100286.97
2023-04-12T04:16:09.707Z,100285.59
2023-04-12T04:18:38.521Z,100277.50
2023-04-12T04:21:10.933Z,100270.63
2023-04-12T04:23:39.595Z,100261.81
2023-04-12T04:26:10.146Z,100258.19
2023-04-12T04:28:45.026Z,100251.75
2023-04-12T04:31:17.644Z,100242.94
2023-04-12T04:33:49.491Z,100229.88
2023-04-12T04:36:19.658Z,100226.53
2023-04-12T04:38:52.816Z,100220.31
2023-04-12T04:41:39.613Z,100217.44
2023-04-12T04:44:11.003Z,100224.63
2023-04-12T04:46:45.072Z,100220.53
2023-04-12T04:49:12.897Z,100208.47
2023-04-12T04:51:42.180Z,100212.06
2023-04-12T04:54:13.978Z,100205.97
2023-04-12T04:56:43.189Z,100205.50
2023-04-12T04:59:18.149Z,100207.06
2023-04-12T05:01:53.150Z,100207.41
2023-04-12T05:04:21.646Z,100219.88
2023-04-12T05:06:51.157Z,100228.75
2023-04-12T05:09:23.103Z,100236.97
2023-04-12T05:11:56.809Z,100238.97
2023-04-12T05:14:41.325Z,100257.41
2023-04-12T05:17:12.937Z,100251.69
2023-04-12T05:19:43.786Z,100248.16
2023-04-12T05:22:14.679Z,100251.63
2023-04-12T05:24:42.493Z,100248.69
2023-04-12T05:27:10.570Z,100256.16
2023-04-12T05:29:38.415Z,100253.53
2023-04-12T05:32:08.648Z,100246.94
2023-04-12T05:34:38.779Z,100231.44
2023-04-12T05:37:06.847Z,100220.84
2023-04-12T05:39:39.865Z,100226.94
2023-04-12T05:42:10.892Z,100235.53
2023-04-12T05:44:39.887Z,100249.41
2023-04-12T05:47:11.828Z,100244.88
2023-04-12T05:49:39.902Z,100250.81
2023-04-12T05:52:10.494Z,100252.31
2023-04-12T05:54:39.818Z,100264.63
2023-04-12T05:57:09.839Z,100263.78
2023-04-12T05:59:37.705Z,100278.19
2023-04-12T06:02:06.207Z,100275.84
2023-04-12T06:04:48.820Z,100282.44
2023-04-12T06:07:19.190Z,100292.56
2023-04-12T06:09:49.685Z,100285.13
2023-04-12T06:12:18.260Z,100290.22
2023-04-12T06:14:47.971Z,100296.81
2023-04-12T06:17:16.130Z,100305.63
2023-04-12T06:19:45.200Z,100305.91
2023-04-12T06:22:13.261Z,100288.22
2023-04-12T06:24:45.851Z,100291.94
2023-04-12T06:27:15.661Z,100293.53
2023-04-12T06:29:43.929Z,100292.75
2023-04-12T06:32:11.975Z,100291.28
2023-04-12T06:34:39.811Z,100290.28
2023-04-12T06:37:13.139Z,100284.97
2023-04-12T06:39:40.933Z,100287.28
2023-04-12T06:42:08.725Z,100293.53
2023-04-12T06:44:41.434Z,100289.09
2023-04-12T06:47:09.457Z,100300.16
2023-04-12T06:49:37.575Z,100292.88
2023-04-12T06:52:05.636Z,100292.34
2023-04-12T06:54:33.787Z,100283.50
2023-04-12T06:57:01.990Z,100299.44
2023-04-12T06:59:30.096Z,100294.06
2023-04-12T07:01:59.199Z,100290.75
2023-04-12T07:04:27.051Z,100291.56
2023-04-12T07:06:54.985Z,100293.63
2023-04-12T07:09:22.939Z,100291.38
2023-04-12T07:11:51.141Z,100295.28
2023-04-12T07:14:18.872Z,100289.56
2023-04-12T07:16:46.643Z,100292.31
2023-04-12T07:19:16.500Z,100291.09
2023-04-12T07:21:44.193Z,100278.59
2023-04-12T07:24:11.981Z,100272.94
2023-04-12T07:26:39.721Z,100271.50
2023-04-12T07:29:07.743Z,100273.06
2023-04-12T07:31:36.062Z,100269.88
2023-04-12T07:34:03.931Z,100262.91
2023-04-12T07:36:33.403Z,100263.28
2023-04-12T07:39:01.176Z,100275.50
2023-04-12T07:41:29.528Z,100261.16
2023-04-12T07:43:57.603Z,100266.66
2023-04-12T07:46:25.476Z,100256.00
2023-04-12T07:48:53.355Z,100258.59
2023-04-12T07:51:21.490Z,100256.75
2023-04-12T07:53:51.741Z,100248.88
2023-04-12T07:56:20.038Z,100206.88
2023-04-12T07:58:47.959Z,100139.06
2023-04-12T08:01:16.885Z,100017.78
2023-04-12T08:03:44.842Z,99863.31
2023-04-12T08:06:12.713Z,99710.97
2023-04-12T08:08:40.707Z,99458.91
2023-04-12T08:11:10.445Z,99128.69
2023-04-12T08:13:38.282Z,98902.00
2023-04-12T08:16:08.351Z,98716.63
2023-04-12T08:18:36.284Z,98531.22
2023-04-12T08:21:04.285Z,98393.66
2023-04-12T08:23:32.472Z,98226.66
2023-04-12T08:26:03.546Z,98136.41
2023-04-12T08:28:33.674Z,98060.38
2023-04-12T08:31:01.626Z,97993.28
2023-04-12T08:33:31.201Z,97935.84
2023-04-12T08:35:59.388Z,97853.25
2023-04-12T08:38:41.391Z,97831.91
2023-04-12T08:41:13.999Z,97814.81
2023-04-12T08:43:46.123Z,97816.91
2023-04-12T08:46:16.633Z,97804.34
2023-04-12T08:48:46.402Z,97788.97
2023-04-12T08:51:15.713Z,97779.38
2023-04-12T08:53:43.554Z,97695.81
2023-04-12T08:56:12.177Z,97669.63
2023-04-12T08:58:41.639Z,97670.66
2023-04-12T09:01:14.812Z,97655.41
2023-04-12T09:03:43.424Z,97659.38
2023-04-12T09:06:12.028Z,97641.09
2023-04-12T09:08:52.174Z,97720.00
2023-04-12T09:11:24.650Z,97771.78
2023-04-12T09:13:52.838Z,97769.56
2023-04-12T09:16:38.112Z,97796.19
2023-04-12T09:19:06.334Z,97791.59
2023-04-12T09:21:35.655Z,97793.81
2023-04-12T09:24:06.059Z,98364.44
2023-04-12T09:26:33.814Z,98530.78
2023-04-12T09:29:01.616Z,98594.97
2023-04-12T09:31:29.345Z,98644.13
2023-04-12T09:34:07.750Z,98726.38
2023-04-12T09:36:39.477Z,98792.28
2023-04-12T09:39:07.687Z,98867.34
2023-04-12T09:41:36.453Z,98906.03
2023-04-12T09:44:04.496Z,99486.09
2023-04-12T09:46:32.494Z,99520.13
2023-04-12T09:49:03.448Z,99583.25
2023-04-12T09:51:33.414Z,99693.47
2023-04-12T09:54:02.984Z,99784.44
2023-04-12T09:56:32.442Z,99977.50
2023-04-12T09:59:03.879Z,100008.22
2023-04-12T10:01:36.136Z,100105.00
2023-04-12T10:04:07.262Z,100188.69
2023-04-12T10:06:35.854Z,100224.50
2023-04-12T10:09:05.000Z,100249.50
2023-04-12T10:11:33.906Z,100255.06
2023-04-12T10:14:03.400Z,100253.94
2023-04-12T10:16:32.032Z,100267.78
2023-04-12T10:19:03.685Z,100265.19
2023-04-12T10:21:32.855Z,100219.38
2023-04-12T10:24:00.927Z,100185.34
2023-04-12T10:26:28.913Z,100106.69
2023-04-12T10:29:24.336Z,100006.50
2023-04-12T10:31:52.296Z,99847.72
2023-04-12T10:34:25.029Z,99701.25
2023-04-12T10:36:56.027Z,99499.69
2023-04-12T10:39:40.219Z,99323.09
2023-04-12T10:42:23.803Z,99152.75
2023-04-12T10:44:53.156Z,99027.38
2023-04-12T10:48:01.552Z,98832.31
2023-04-12T10:50:31.241Z,98621.38
2023-04-12T10:53:27.744Z,98447.78
2023-04-12T10:55:55.597Z,98322.72
2023-04-12T10:58:57.769Z,98276.94
2023-04-12T11:01:28.384Z,98284.06
2023-04-12T11:04:16.688Z,98314.50
2023-04-12T11:06:59.597Z,98333.63
2023-04-12T11:09:48.569Z,98389.00
2023-04-12T11:12:27.636Z,98431.84
2023-04-12T11:15:01.543Z,98426.66
2023-04-12T11:17:53.940Z,98465.03
2023-04-12T11:20:21.813Z,98493.72
2023-04-12T11:22:51.872Z,98507.38
2023-04-12T11:25:21.191Z,98548.53
2023-04-12T11:27:52.568Z,98581.84
2023-04-12T11:30:20.648Z,98630.59
2023-04-12T11:32:48.747Z,98697.78
2023-04-12T11:35:17.049Z,98715.94
2023-04-12T11:37:45.783Z,98771.94
2023-04-12T11:40:14.044Z,98758.25
2023-04-12T11:42:43.427Z,98772.09
2023-04-12T11:45:17.877Z,98799.63
2023-04-12T11:47:47.022Z,98830.66
2023-04-12T11:50:28.418Z,98855.28
2023-04-12T11:52:56.119Z,98887.75
2023-04-12T11:55:24.043Z,98869.84
2023-04-12T11:57:55.893Z,98911.28
2023-04-12T12:00:25.442Z,98943.72
2023-04-12T12:03:06.587Z,98972.72
2023-04-12T12:05:37.914Z,99023.09
2023-04-12T12:08:07.869Z,99059.66
2023-04-12T12:10:46.389Z,99075.56
2023-04-12T12:13:21.381Z,99120.75
2023-04-12T12:15:52.721Z,99152.53
2023-04-12T12:18:21.121Z,99165.16
2023-04-12T12:20:50.556Z,99192.22
2023-04-12T12:23:32.672Z,99194.06
2023-04-12T12:26:16.850Z,99205.28
2023-04-12T12:28:50.804Z,99220.25
2023-04-12T12:31:22.199Z,99236.06
2023-04-12T12:33:52.501Z,99240.59
2023-04-12T12:36:21.341Z,99262.41
2023-04-12T12:38:51.182Z,99267.94
2023-04-12T12:41:21.157Z,99263.13
2023-04-12T12:43:52.547Z,99265.25
2023-04-12T12:46:21.446Z,99263.38
2023-04-12T12:48:49.811Z,99278.34
2023-04-12T12:51:18.073Z,99300.09
2023-04-12T12:53:46.310Z,99307.06
2023-04-12T12:56:15.368Z,99327.56
2023-04-12T12:58:43.297Z,99317.97
2023-04-12T13:01:12.727Z,99316.56
2023-04-12T13:03:40.630Z,99316.78
2023-04-12T13:06:09.948Z,99320.22
2023-04-12T13:08:37.862Z,99344.53
2023-04-12T13:11:06.189Z,99357.16
2023-04-12T13:13:33.947Z,99355.78
2023-04-12T13:16:01.767Z,99357.91
2023-04-12T13:18:30.903Z,99388.56
2023-04-12T13:20:58.765Z,99380.88
2023-04-12T13:23:26.509Z,99385.38
2023-04-12T13:25:54.499Z,99392.53
2023-04-12T13:28:22.773Z,99400.53
2023-04-12T13:30:50.765Z,99380.00
2023-04-12T13:33:21.609Z,99388.28
2023-04-12T13:35:51.605Z,99383.16
2023-04-12T13:38:19.795Z,99372.19
2023-04-12T13:40:47.852Z,99365.50
2023-04-12T13:43:16.495Z,99373.16
2023-04-12T13:45:44.842Z,99407.03
2023-04-12T13:48:12.685Z,99421.53
2023-04-12T13:50:40.627Z,99427.88
2023-04-12T13:53:09.907Z,99401.72
2023-04-12T13:55:37.897Z,99367.66
2023-04-12T13:58:05.661Z,99344.13
2023-04-12T14:00:33.517Z,99312.53
2023-04-12T14:03:02.542Z,99266.94
2023-04-12T14:05:30.546Z,99233.88
2023-04-12T14:08:00.826Z,99229.44
2023-04-12T14:10:30.036Z,99233.66
2023-04-12T14:12:57.806Z,99247.59
2023-04-12T14:15:25.761Z,99247.84
2023-04-12T14:17:56.106Z,99247.09
2023-04-12T14:20:24.572Z,99260.16
2023-04-12T14:22:52.343Z,99248.81
2023-04-12T14:25:21.360Z,99242.25
2023-04-12T14:27:50.644Z,99250.00
2023-04-12T14:30:19.146Z,99234.38
2023-04-12T14:32:50.396Z,99215.09
2023-04-12T14:35:18.406Z,99199.41
2023-04-12T14:37:47.666Z,99168.59
2023-04-12T14:40:16.307Z,99153.63
2023-04-12T14:42:44.130Z,99155.81
2023-04-12T14:45:14.686Z,99123.97
2023-04-12T14:47:45.614Z,99122.25
2023-04-12T14:50:13.475Z,99155.03
2023-04-12T14:52:41.173Z,99189.22
2023-04-12T14:55:10.571Z,99219.13
2023-04-12T14:57:38.335Z,99228.47
2023-04-12T15:00:13.043Z,99232.97
2023-04-12T15:02:44.407Z,99230.75
2023-04-12T15:05:12.958Z,99246.13
2023-04-12T15:07:41.368Z,99266.84
2023-04-12T15:10:10.782Z,99278.56
2023-04-12T15:12:39.195Z,99291.31
2023-04-12T15:15:08.513Z,99296.50
2023-04-12T15:17:37.557Z,99305.19
2023-04-12T15:20:12.835Z,99300.56
2023-04-12T15:22:41.378Z,99283.53
2023-04-12T15:25:15.598Z,99301.28
2023-04-12T15:27:44.544Z,99294.06
2023-04-12T15:30:15.451Z,99307.28
2023-04-12T15:32:43.841Z,99299.81
2023-04-12T15:35:26.178Z,99335.94
2023-04-12T15:37:55.862Z,99362.59
2023-04-12T15:40:24.772Z,99367.38
2023-04-12T15:42:53.579Z,99371.41
2023-04-12T15:45:22.114Z,99387.22
2023-04-12T15:47:50.361Z,99402.53
2023-04-12T15:50:20.190Z,99412.72
2023-04-12T15:52:49.336Z,99421.16
2023-04-12T15:55:20.421Z,99425.31
2023-04-12T15:57:48.427Z,99424.59
2023-04-12T16:00:24.563Z,99434.84
2023-04-12T16:02:56.311Z,99441.72
2023-04-12T16:05:26.540Z,99457.78
2023-04-12T16:07:56.746Z,99483.22
2023-04-12T16:10:24.734Z,99482.50
2023-04-12T16:12:54.218Z,99509.53
2023-04-12T16:15:22.261Z,99492.50
2023-04-12T16:17:51.763Z,99501.34
2023-04-12T16:20:21.660Z,99507.94
2023-04-12T16:22:54.117Z,99506.00
2023-04-12T16:25:22.079Z,99529.13
2023-04-12T16:27:50.146Z,99535.38
2023-04-12T16:30:18.120Z,99531.63
2023-04-12T16:32:47.660Z,99522.31
2023-04-12T16:35:16.391Z,99507.38
2023-04-12T16:37:44.802Z,99480.75
2023-04-12T16:40:14.759Z,99475.72
2023-04-12T16:42:43.078Z,99450.84
2023-04-12T16:45:14.290Z,99451.75
2023-04-12T16:47:42.732Z,99421.78
2023-04-12T16:50:13.081Z,99433.28
2023-04-12T16:52:41.141Z,99404.44
2023-04-12T16:55:11.393Z,99410.47
2023-04-12T16:57:42.946Z,99413.94
2023-04-12T17:00:19.522Z,99426.53
2023-04-12T17:02:49.688Z,99427.16
2023-04-12T17:05:19.684Z,99415.44
2023-04-12T17:07:49.566Z,99407.50
2023-04-12T17:10:18.774Z,99419.44
2023-04-12T17:12:48.962Z,99432.03
2023-04-12T17:15:18.700Z,99430.31
2023-04-12T17:17:47.991Z,99425.22
2023-04-12T17:20:16.860Z,99424.19
2023-04-12T17:22:44.848Z,99413.91
2023-04-12T17:25:13.226Z,99411.16
2023-04-12T17:27:42.024Z,99400.59
2023-04-12T17:30:13.234Z,99401.59
2023-04-12T17:32:41.387Z,99400.59
2023-04-12T17:35:09.998Z,99407.66
2023-04-12T17:37:38.271Z,99406.56
2023-04-12T17:40:08.381Z,99401.19
2023-04-12T17:42:36.452Z,99394.50
2023-04-12T17:45:04.211Z,99399.56
2023-04-12T17:47:34.651Z,99404.94
2023-04-12T17:50:02.686Z,99414.22
2023-04-12T17:52:31.400Z,99404.06
2023-04-12T17:54:59.203Z,99391.84
2023-04-12T17:57:27.580Z,99405.69
2023-04-12T17:59:55.378Z,99395.47
2023-04-12T18:02:23.645Z,99390.56
2023-04-12T18:04:53.130Z,99388.28
2023-04-12T18:07:21.312Z,99382.81
2023-04-12T18:09:49.409Z,99378.53
2023-04-12T18:12:17.655Z,99378.06
2023-04-12T18:14:45.592Z,99388.22
2023-04-12T18:17:13.650Z,99399.78
2023-04-12T18:19:41.446Z,99395.19
2023-04-12T18:22:10.597Z,99398.31
2023-04-12T18:24:38.658Z,99386.72
2023-04-12T18:27:07.102Z,99383.44
2023-04-12T18:29:34.982Z,99395.84
2023-04-12T18:32:02.703Z,99404.16
2023-04-12T18:34:30.490Z,99391.44
2023-04-12T18:36:59.766Z,99399.41
2023-04-12T18:39:29.296Z,99396.63
2023-04-12T18:41:58.083Z,99395.56
2023-04-12T18:44:26.235Z,99385.66
2023-04-12T18:46:54.040Z,99394.69
2023-04-12T18:49:21.915Z,99378.34
2023-04-12T18:51:49.623Z,99387.19
2023-04-12T18:54:17.564Z,99382.38
2023-04-12T18:56:46.735Z,99380.59
2023-04-12T18:59:17.545Z,99395.16
2023-04-12T19:01:46.237Z,99390.25
2023-04-12T19:04:16.528Z,99364.63
2023-04-12T19:06:45.104Z,99363.94
2023-04-12T19:09:12.941Z,99374.75
2023-04-12T19:11:40.842Z,99381.41
2023-04-12T19:14:10.605Z,99375.19
2023-04-12T19:16:38.736Z,99373.41
2023-04-12T19:19:07.217Z,99371.06
2023-04-12T19:21:35.621Z,99367.88
2023-04-12T19:24:03.592Z,99372.91
2023-04-12T19:26:31.856Z,99388.06
2023-04-12T19:29:00.001Z,99393.88
2023-04-12T19:31:29.367Z,99392.59
2023-04-12T19:33:57.739Z,99394.44
2023-04-12T19:36:25.952Z,99406.47
2023-04-12T19:38:53.750Z,99401.84
2023-04-12T19:41:21.719Z,99408.72
2023-04-12T19:43:50.335Z,99407.00
2023-04-12T19:46:18.579Z,99402.91
2023-04-12T19:48:48.743Z,99396.25
2023-04-12T19:51:16.823Z,99400.78
2023-04-12T19:53:46.202Z,99397.22
2023-04-12T19:56:14.991Z,99414.00
2023-04-12T19:58:44.375Z,99437.06
2023-04-12T20:01:13.658Z,99447.81
2023-04-12T20:03:43.781Z,99453.16
2023-04-12T20:06:13.005Z,99469.19
2023-04-12T20:08:40.852Z,99469.19
2023-04-12T20:11:08.932Z,99494.22
2023-04-12T20:13:37.119Z,99505.72
2023-04-12T20:16:05.294Z,99520.44
2023-04-12T20:18:33.252Z,99556.53
2023-04-12T20:21:00.939Z,99567.91
2023-04-12T20:23:30.080Z,99589.00
2023-04-12T20:25:57.883Z,99609.63
2023-04-12T20:28:25.802Z,99599.72
2023-04-12T20:30:53.735Z,99576.09
2023-04-12T20:33:21.702Z,99587.13
2023-04-12T20:35:50.748Z,99590.84
2023-04-12T20:38:19.264Z,99590.06
2023-04-12T20:40:48.301Z,99587.16
2023-04-12T20:43:16.701Z,99573.25
2023-04-12T20:45:46.890Z,99559.78
2023-04-12T20:48:14.866Z,99549.66
2023-04-12T20:50:42.655Z,99541.06
2023-04-12T20:53:15.072Z,99540.31
2023-04-12T20:55:44.149Z,99534.56
2023-04-12T20:58:14.515Z,99519.63
2023-04-12T21:00:42.704Z,99515.53
2023-04-12T21:03:12.435Z,99493.97
2023-04-12T21:05:40.506Z,99492.09
2023-04-12T21:08:08.896Z,99468.69
2023-04-12T21:10:36.646Z,99460.53
2023-04-12T21:13:04.405Z,99454.31
2023-04-12T21:15:35.346Z,99451.50
2023-04-12T21:18:04.124Z,99436.81
2023-04-12T21:20:32.050Z,99449.56
2023-04-12T21:22:59.893Z,99442.84
2023-04-12T21:25:27.580Z,99439.75
2023-04-12T21:27:55.216Z,99438.78
2023-04-12T21:30:23.263Z,99445.66
2023-04-12T21:32:53.764Z,99450.16
2023-04-12T21:35:22.697Z,99448.88
2023-04-12T21:37:51.617Z,99455.22
2023-04-12T21:40:19.433Z,99449.56
2023-04-12T21:42:47.192Z,99444.03
2023-04-12T21:45:15.003Z,99430.22
2023-04-12T21:47:43.548Z,99421.53
2023-04-12T21:50:13.178Z,99413.78
2023-04-12T21:52:41.260Z,99412.28
2023-04-12T21:55:09.080Z,99414.25
2023-04-12T21:57:36.926Z,99423.53
2023-04-12T22:00:08.672Z,99430.28
2023-04-12T22:02:42.683Z,99434.47
2023-04-12T22:05:12.384Z,99424.63
2023-04-12T22:07:41.269Z,99425.38
2023-04-12T22:10:11.917Z,99418.19
2023-04-12T22:12:39.896Z,99410.13
2023-04-12T22:15:09.011Z,99429.91
2023-04-12T22:17:37.842Z,99429.22
2023-04-12T22:20:08.595Z,99412.53
2023-04-12T22:22:38.199Z,99421.00
2023-04-12T22:25:08.453Z,99412.78
2023-04-12T22:27:37.098Z,99409.53
2023-04-12T22:30:05.615Z,99417.88
2023-04-12T22:32:33.746Z,99403.41
2023-04-12T22:35:07.670Z,99390.22
2023-04-12T22:37:38.894Z,99393.47
2023-04-12T22:40:11.564Z,99389.44
2023-04-12T22:42:46.566Z,99388.56
2023-04-12T22:45:14.873Z,99384.56
2023-04-12T22:47:43.148Z,99394.16
2023-04-12T22:50:12.697Z,99385.59
2023-04-12T22:52:42.439Z,99393.66
2023-04-12T22:55:12.791Z,99398.00
2023-04-12T22:57:40.685Z,99391.56
2023-04-12T23:00:14.957Z,99379.31
2023-04-12T23:02:46.022Z,99385.81
2023-04-12T23:05:14.413Z,99375.38
2023-04-12T23:07:44.009Z,99383.97
2023-04-12T23:10:12.386Z,99374.97
2023-04-12T23:12:40.237Z,99381.75
2023-04-12T23:15:09.061Z,99377.34
2023-04-12T23:17:37.249Z,99385.94
2023-04-12T23:20:09.852Z,99377.16
2023-04-12T23:22:57.269Z,99374.78
2023-04-12T23:25:39.312Z,99376.94
2023-04-12T23:28:12.938Z,99372.25
2023-04-12T23:30:43.720Z,99388.56
2023-04-12T23:33:12.638Z,99384.53
2023-04-12T23:35:41.781Z,99387.97
2023-04-12T23:38:10.170Z,99389.56
2023-04-12T23:40:40.313Z,99380.69
2023-04-12T23:43:09.081Z,99362.69
2023-04-12T23:45:37.005Z,99357.31
2023-04-12T23:48:06.739Z,99363.84
2023-04-12T23:50:34.934Z,99358.16
2023-04-12T23:53:03.556Z,99359.69
2023-04-12T23:55:31.683Z,99368.13
2023-04-12T23:58:01.002Z,99357.19
